createdAt,value
2019-01-26T00:01:57.670Z,22.50
2019-01-26T00:04:27.585Z,21.30
2019-01-26T00:06:59.752Z,26.83
2019-01-26T00:09:52.400Z,23.73
2019-01-26T00:12:25.453Z,24.67
2019-01-26T00:14:58.579Z,25.63
2019-01-26T00:17:30.336Z,22.53
2019-01-26T00:20:02.099Z,24.03
2019-01-26T00:22:32.316Z,25.83
2019-01-26T00:25:04.845Z,23.37
2019-01-26T00:27:34.909Z,25.67
2019-01-26T00:30:14.348Z,25.23
2019-01-26T00:32:44.467Z,30.47
2019-01-26T00:35:15.950Z,30.57
2019-01-26T00:37:46.548Z,25.37
2019-01-26T00:40:17.180Z,23.53
2019-01-26T00:42:48.835Z,27.87
2019-01-26T00:45:21.648Z,25.73
2019-01-26T00:47:51.635Z,28.70
2019-01-26T00:50:22.086Z,22.10
2019-01-26T00:52:52.189Z,23.13
2019-01-26T00:58:02.865Z,24.67
2019-01-26T01:00:32.884Z,20.87
2019-01-26T01:03:03.228Z,17.00
2019-01-26T01:05:34.349Z,21.47
2019-01-26T01:08:04.469Z,21.50
2019-01-26T01:10:38.822Z,19.83
2019-01-26T01:13:08.803Z,16.83
2019-01-26T01:15:40.356Z,22.03
2019-01-26T01:18:10.374Z,20.80
2019-01-26T01:20:40.594Z,19.83
2019-01-26T01:23:10.920Z,21.03
2019-01-26T01:25:42.167Z,20.50
2019-01-26T01:28:12.489Z,17.43
2019-01-26T01:30:42.943Z,22.70
2019-01-26T01:33:13.224Z,18.73
2019-01-26T01:35:44.589Z,15.67
2019-01-26T01:38:14.709Z,19.50
2019-01-26T01:40:45.338Z,18.60
2019-01-26T01:43:15.354Z,17.80
2019-01-26T01:45:46.806Z,17.00
2019-01-26T01:48:17.131Z,17.70
2019-01-26T01:50:48.888Z,18.00
2019-01-26T01:53:18.892Z,22.00
2019-01-26T01:55:50.151Z,18.20
2019-01-26T01:58:20.189Z,20.57
2019-01-26T02:00:50.315Z,17.33
2019-01-26T02:06:09.163Z,17.40
2019-01-26T02:08:39.182Z,19.47
2019-01-26T02:11:09.300Z,19.57
2019-01-26T02:13:39.317Z,20.03
2019-01-26T02:16:09.641Z,16.90
2019-01-26T02:18:39.760Z,20.83
2019-01-26T02:21:09.880Z,18.67
2019-01-26T02:26:30.496Z,15.90
2019-01-26T02:29:02.050Z,17.83
2019-01-26T02:34:27.991Z,15.13
2019-01-26T02:36:58.316Z,17.07
2019-01-26T02:39:29.561Z,14.53
2019-01-26T02:41:59.606Z,16.47
2019-01-26T02:44:29.595Z,17.73
2019-01-26T02:46:59.924Z,16.80
2019-01-26T02:49:30.039Z,15.23
2019-01-26T02:54:40.108Z,14.97
2019-01-26T02:57:10.125Z,15.80
2019-01-26T02:59:40.245Z,14.60
2019-01-26T03:02:10.363Z,12.60
2019-01-26T03:05:00.964Z,14.73
2019-01-26T03:10:26.700Z,16.70
2019-01-26T03:12:56.819Z,14.83
2019-01-26T03:15:27.968Z,16.43
2019-01-26T03:17:58.185Z,15.03
2019-01-26T03:20:28.203Z,13.93
2019-01-26T03:22:58.321Z,17.00
2019-01-26T03:25:29.545Z,13.63
2019-01-26T03:27:59.688Z,14.33
2019-01-26T03:30:29.809Z,15.80
2019-01-26T03:32:59.785Z,14.73
2019-01-26T03:35:31.071Z,17.70
2019-01-26T03:38:01.086Z,15.83
2019-01-26T03:40:31.232Z,19.83
2019-01-26T03:43:02.347Z,21.17
2019-01-26T03:45:33.594Z,17.70
2019-01-26T03:48:03.920Z,21.17
2019-01-26T03:53:24.023Z,15.50
2019-01-26T03:56:06.634Z,17.67
2019-01-26T03:58:36.959Z,24.77
2019-01-26T04:01:06.980Z,17.80
2019-01-26T04:03:57.985Z,17.43
2019-01-26T04:06:29.349Z,16.07
2019-01-26T04:08:59.476Z,15.73
2019-01-26T04:11:29.472Z,12.90
2019-01-26T04:13:59.488Z,16.67
2019-01-26T04:16:30.939Z,17.17
2019-01-26T04:19:01.166Z,15.43
2019-01-26T04:21:31.381Z,17.47
2019-01-26T04:24:01.603Z,12.40
2019-01-26T04:26:32.849Z,13.10
2019-01-26T04:29:03.071Z,15.13
2019-01-26T04:31:33.098Z,17.97
2019-01-26T04:34:03.144Z,14.83
2019-01-26T04:36:55.453Z,15.90
2019-01-26T04:39:25.363Z,19.77
2019-01-26T04:41:55.489Z,20.37
2019-01-26T04:44:25.499Z,16.40
2019-01-26T04:46:55.841Z,20.87
2019-01-26T04:49:26.042Z,13.67
2019-01-26T04:51:56.390Z,16.23
2019-01-26T04:54:26.589Z,14.60
2019-01-26T04:56:58.143Z,21.23
2019-01-26T04:59:28.323Z,14.00
2019-01-26T05:01:58.703Z,16.60
2019-01-26T05:07:19.534Z,19.87
2019-01-26T05:10:01.938Z,14.90
2019-01-26T05:12:32.244Z,14.27
2019-01-26T05:15:21.512Z,21.73
2019-01-26T05:17:51.833Z,16.87
2019-01-26T05:20:23.539Z,15.60
2019-01-26T05:22:54.735Z,12.63
2019-01-26T05:25:26.084Z,15.17
2019-01-26T05:27:56.843Z,14.70
2019-01-26T05:30:27.809Z,15.57
2019-01-26T05:36:05.508Z,16.43
2019-01-26T05:38:35.797Z,18.63
2019-01-26T05:41:06.021Z,13.83
2019-01-26T05:43:36.242Z,12.80
2019-01-26T05:46:07.385Z,17.70
2019-01-26T05:48:37.616Z,14.23
2019-01-26T05:51:07.625Z,28.73
2019-01-26T05:53:37.947Z,19.13
2019-01-26T05:56:09.123Z,15.70
2019-01-26T05:58:39.420Z,19.57
2019-01-26T06:01:09.534Z,19.47
2019-01-26T06:03:39.653Z,12.53
2019-01-26T06:06:11.105Z,16.60
2019-01-26T06:08:41.224Z,14.27
2019-01-26T06:11:11.548Z,14.10
2019-01-26T06:13:41.769Z,21.17
2019-01-26T06:16:13.018Z,10.97
2019-01-26T06:18:43.471Z,13.40
2019-01-26T06:21:13.460Z,13.83
2019-01-26T06:23:43.582Z,11.07
2019-01-26T06:26:14.829Z,11.07
2019-01-26T06:28:45.384Z,15.47
2019-01-26T06:31:15.578Z,15.63
2019-01-26T06:33:45.696Z,15.33
2019-01-26T06:36:16.941Z,14.87
2019-01-26T06:38:47.265Z,12.33
2019-01-26T06:41:17.179Z,16.67
2019-01-26T06:43:47.430Z,23.03
2019-01-26T06:46:18.648Z,19.13
2019-01-26T06:48:50.145Z,15.53
2019-01-26T06:51:20.116Z,15.77
2019-01-26T06:54:11.124Z,22.70
2019-01-26T06:56:42.471Z,12.00
2019-01-26T06:59:12.591Z,13.07
2019-01-26T07:01:42.607Z,14.57
2019-01-26T07:04:14.469Z,14.73
2019-01-26T07:06:48.138Z,12.77
2019-01-26T07:09:18.496Z,14.03
2019-01-26T07:11:48.514Z,12.60
2019-01-26T07:14:18.563Z,12.80
2019-01-26T07:16:49.777Z,16.43
2019-01-26T07:19:20.000Z,18.33
2019-01-26T07:21:51.141Z,15.43
2019-01-26T07:24:21.156Z,15.63
2019-01-26T07:26:52.301Z,26.20
2019-01-26T07:29:23.750Z,16.73
2019-01-26T07:31:55.406Z,20.53
2019-01-26T07:34:26.653Z,22.77
2019-01-26T07:36:58.309Z,20.73
2019-01-26T07:39:28.405Z,19.87
2019-01-26T07:42:01.518Z,20.33
2019-01-26T07:44:32.045Z,24.53
2019-01-26T07:49:55.017Z,23.60
2019-01-26T07:52:25.238Z,21.70
2019-01-26T07:54:55.312Z,26.67
2019-01-26T07:57:25.306Z,17.27
2019-01-26T07:59:56.683Z,17.80
2019-01-26T08:02:26.535Z,16.33
2019-01-26T08:04:56.962Z,19.20
2019-01-26T08:07:27.288Z,19.33
2019-01-26T08:09:57.405Z,16.93
2019-01-26T08:12:27.445Z,19.57
2019-01-26T08:14:57.876Z,27.17
2019-01-26T08:17:27.968Z,17.97
2019-01-26T08:19:58.212Z,11.30
2019-01-26T08:22:28.210Z,43.37
2019-01-26T08:24:59.967Z,22.23
2019-01-26T08:27:30.007Z,18.90
2019-01-26T08:30:00.261Z,23.33
2019-01-26T08:32:30.357Z,20.67
2019-01-26T08:35:01.569Z,16.00
2019-01-26T08:37:31.632Z,19.17
2019-01-26T08:40:03.369Z,14.23
2019-01-26T08:42:34.079Z,16.95
2019-01-26T08:45:08.396Z,15.88
2019-01-26T08:47:38.925Z,14.75
2019-01-26T08:50:14.584Z,13.03
2019-01-26T08:52:45.105Z,16.85
2019-01-26T08:55:18.265Z,10.63
2019-01-26T08:57:48.438Z,10.10
2019-01-26T09:00:24.518Z,15.50
2019-01-26T09:02:56.536Z,19.37
2019-01-26T09:05:45.805Z,11.63
2019-01-26T09:08:16.438Z,13.32
2019-01-26T09:10:47.030Z,22.42
2019-01-26T09:13:17.597Z,13.80
2019-01-26T09:15:49.237Z,13.28
2019-01-26T09:18:19.573Z,9.88
2019-01-26T09:20:50.039Z,17.57
2019-01-26T09:23:20.374Z,26.35
2019-01-26T09:25:50.840Z,19.15
2019-01-26T09:28:20.702Z,15.32
2019-01-26T09:30:50.595Z,19.55
2019-01-26T09:33:20.370Z,14.23
2019-01-26T09:35:51.357Z,10.43
2019-01-26T09:38:21.352Z,19.23
2019-01-26T09:40:52.493Z,14.73
2019-01-26T09:43:22.615Z,15.60
2019-01-26T09:45:54.372Z,12.83
2019-01-26T09:48:24.493Z,11.67
2019-01-26T09:50:54.703Z,19.97
2019-01-26T09:53:24.453Z,15.43
2019-01-26T09:55:54.371Z,20.77
2019-01-26T09:58:24.354Z,18.17
2019-01-26T10:00:54.939Z,28.73
2019-01-26T10:03:24.824Z,25.70
2019-01-26T10:05:56.657Z,21.90
2019-01-26T10:08:27.835Z,18.73
2019-01-26T10:10:58.024Z,16.40
2019-01-26T10:13:28.040Z,19.07
2019-01-26T10:15:59.387Z,19.33
2019-01-26T10:18:29.816Z,19.73
2019-01-26T10:20:59.889Z,22.23
2019-01-26T10:23:29.848Z,18.80
2019-01-26T10:26:00.274Z,16.67
2019-01-26T10:28:30.074Z,21.00
2019-01-26T10:31:00.307Z,21.60
2019-01-26T10:33:30.340Z,23.00
2019-01-26T10:36:02.084Z,18.03
2019-01-26T10:38:33.621Z,17.97
2019-01-26T10:41:05.395Z,20.67
2019-01-26T10:43:39.555Z,26.07
2019-01-26T10:46:10.957Z,16.37
2019-01-26T10:48:41.805Z,24.03
2019-01-26T10:51:13.554Z,20.63
2019-01-26T10:53:43.875Z,17.17
2019-01-26T10:56:14.200Z,21.37
2019-01-26T10:58:44.318Z,19.37
2019-01-26T11:01:14.745Z,20.20
2019-01-26T11:03:44.866Z,19.77
2019-01-26T11:06:15.396Z,18.57
2019-01-26T11:08:45.514Z,24.77
2019-01-26T11:11:16.862Z,25.27
2019-01-26T11:13:46.984Z,27.63
2019-01-26T11:16:17.305Z,25.60
2019-01-26T11:18:48.859Z,46.67
2019-01-26T11:21:19.419Z,43.90
2019-01-26T11:23:51.940Z,29.53
2019-01-26T11:26:22.657Z,26.57
2019-01-26T11:28:52.510Z,25.73
2019-01-26T11:31:23.974Z,28.13
2019-01-26T11:33:54.898Z,35.77
2019-01-26T11:36:25.634Z,27.63
2019-01-26T11:38:55.693Z,27.83
2019-01-26T11:41:25.976Z,25.57
2019-01-26T11:43:56.094Z,32.53
2019-01-26T11:46:40.438Z,31.87
2019-01-26T11:49:15.311Z,30.30
2019-01-26T11:51:52.522Z,39.30
2019-01-26T11:54:22.334Z,31.73
2019-01-26T11:56:52.806Z,36.33
2019-01-26T11:59:22.823Z,34.50
2019-01-26T12:01:59.092Z,32.27
2019-01-26T12:04:34.736Z,27.87
2019-01-26T12:07:06.337Z,30.97
2019-01-26T12:09:36.303Z,29.50
2019-01-26T12:15:37.581Z,34.87
2019-01-26T12:18:07.558Z,28.90
2019-01-26T12:20:37.885Z,32.97
2019-01-26T12:24:22.641Z,37.57
2019-01-26T12:41:42.325Z,33.03
2019-01-26T12:44:12.544Z,28.70
2019-01-26T12:46:42.767Z,27.57
2019-01-26T12:49:12.887Z,30.90
2019-01-26T12:51:44.440Z,32.07
2019-01-26T12:54:14.763Z,31.53
2019-01-26T12:57:06.903Z,37.20
2019-01-26T12:59:37.223Z,30.83
2019-01-26T13:02:07.239Z,35.10
2019-01-26T13:04:37.669Z,33.07
2019-01-26T13:07:27.038Z,33.67
2019-01-26T13:12:53.118Z,43.43
2019-01-26T13:15:24.330Z,29.77
2019-01-26T13:17:54.370Z,41.33
2019-01-26T13:20:24.566Z,35.27
2019-01-26T13:22:54.997Z,34.10
2019-01-26T13:25:26.238Z,42.10
2019-01-26T13:27:56.360Z,42.17
2019-01-26T13:30:26.763Z,37.63
2019-01-26T13:32:56.804Z,37.63
2019-01-26T13:35:27.353Z,32.83
2019-01-26T13:37:57.347Z,31.90
2019-01-26T13:40:32.563Z,42.73
2019-01-26T13:43:02.609Z,31.57
2019-01-26T13:45:34.054Z,30.90
2019-01-26T13:48:04.175Z,39.70
2019-01-26T13:50:36.341Z,31.33
2019-01-26T13:53:06.563Z,34.60
2019-01-26T13:55:37.808Z,37.37
2019-01-26T13:58:07.929Z,39.13
2019-01-26T14:00:38.203Z,36.30
2019-01-26T14:03:08.372Z,35.97
2019-01-26T14:05:40.135Z,39.10
2019-01-26T14:08:10.145Z,38.57
2019-01-26T14:10:40.393Z,38.07
2019-01-26T14:13:10.456Z,39.37
2019-01-26T14:18:22.400Z,40.73
2019-01-26T14:20:52.678Z,38.20
2019-01-26T14:23:22.770Z,37.73
2019-01-26T14:25:52.962Z,43.30
2019-01-26T14:31:13.581Z,38.67
2019-01-26T14:33:43.597Z,35.37
2019-01-26T14:36:14.023Z,39.53
2019-01-26T14:38:44.688Z,40.90
2019-01-26T14:41:14.979Z,40.20
2019-01-26T14:43:45.097Z,42.27
2019-01-26T14:46:16.548Z,45.30
2019-01-26T14:51:37.191Z,42.23
2019-01-26T14:54:07.284Z,37.13
2019-01-26T14:56:38.837Z,46.90
2019-01-26T14:59:08.853Z,45.13
2019-01-26T15:01:39.076Z,42.47
2019-01-26T15:04:09.093Z,40.80
2019-01-26T15:06:40.542Z,41.37
2019-01-26T15:09:10.565Z,38.60
2019-01-26T15:11:40.918Z,40.60
2019-01-26T15:14:10.903Z,39.27
2019-01-26T15:16:42.352Z,38.00
2019-01-26T15:19:12.470Z,48.13
2019-01-26T15:21:42.486Z,46.57
2019-01-26T15:24:12.505Z,47.23
2019-01-26T15:26:42.931Z,50.13
2019-01-26T15:29:13.050Z,45.10
2019-01-26T15:31:43.169Z,41.57
2019-01-26T15:34:13.393Z,50.37
2019-01-26T15:36:44.238Z,45.63
2019-01-26T15:39:14.246Z,48.33
2019-01-26T15:41:44.419Z,52.40
2019-01-26T15:44:14.651Z,51.07
2019-01-26T15:46:46.343Z,50.73
2019-01-26T15:52:08.189Z,47.53
2019-01-26T15:54:39.741Z,47.50
2019-01-26T15:57:11.192Z,52.73
2019-01-26T15:59:41.209Z,50.10
2019-01-26T16:02:11.804Z,50.93
2019-01-26T16:04:41.977Z,54.10
2019-01-26T16:07:12.183Z,39.33
2019-01-26T16:09:42.919Z,55.03
2019-01-26T16:12:14.230Z,45.33
2019-01-26T16:14:46.125Z,49.20
2019-01-26T16:17:16.281Z,56.50
2019-01-26T16:19:46.722Z,51.87
2019-01-26T16:22:19.173Z,53.23
2019-01-26T16:24:49.163Z,48.77
2019-01-26T16:27:19.413Z,59.53
2019-01-26T16:29:49.400Z,45.83
2019-01-26T16:32:19.562Z,45.60
2019-01-26T16:34:49.537Z,48.37
2019-01-26T16:40:18.177Z,48.80
2019-01-26T16:42:48.307Z,51.80
2019-01-26T16:45:22.161Z,53.87
2019-01-26T16:47:52.492Z,60.80
2019-01-26T16:50:27.769Z,53.57
2019-01-26T16:52:58.751Z,54.77
2019-01-26T16:55:34.049Z,54.83
2019-01-26T16:58:08.256Z,58.37
2019-01-26T17:00:46.427Z,59.27
2019-01-26T17:03:16.900Z,57.60
2019-01-26T17:05:48.215Z,55.27
2019-01-26T17:08:19.689Z,61.83
2019-01-26T17:10:49.782Z,48.50
2019-01-26T17:13:20.004Z,52.77
2019-01-26T17:15:51.892Z,53.03
2019-01-26T17:18:21.986Z,54.73
2019-01-26T17:20:52.309Z,58.97
2019-01-26T17:23:22.585Z,60.30
2019-01-26T17:25:52.889Z,56.97
2019-01-26T17:28:23.551Z,56.40
2019-01-26T17:30:54.031Z,71.47
2019-01-26T17:33:24.345Z,62.07
2019-01-26T17:38:45.109Z,62.17
2019-01-26T17:41:15.286Z,57.87
2019-01-26T17:43:47.242Z,67.40
2019-01-26T17:46:19.078Z,65.27
2019-01-26T17:48:49.453Z,54.63
2019-01-26T17:51:28.395Z,57.80
2019-01-26T17:53:58.777Z,63.33
2019-01-26T17:56:30.128Z,56.30
2019-01-26T17:59:00.348Z,55.03
2019-01-26T18:01:42.673Z,58.40
2019-01-26T18:04:12.880Z,64.70
2019-01-26T18:06:44.023Z,64.87
2019-01-26T18:09:14.240Z,67.33
2019-01-26T18:11:44.330Z,70.43
2019-01-26T18:14:14.991Z,62.73
2019-01-26T18:16:47.188Z,77.40
2019-01-26T18:19:17.457Z,89.90
2019-01-26T18:21:47.462Z,74.73
2019-01-26T18:24:17.619Z,116.07
2019-01-26T18:26:47.999Z,114.63
2019-01-26T18:29:18.406Z,70.40
2019-01-26T18:32:07.894Z,70.30
2019-01-26T18:34:38.167Z,64.17
2019-01-26T18:37:08.188Z,72.83
2019-01-26T18:39:38.716Z,73.93
2019-01-26T18:42:16.577Z,64.30
2019-01-26T18:44:48.579Z,66.63
2019-01-26T18:47:18.929Z,69.57
2019-01-26T18:49:49.024Z,73.50
2019-01-26T18:52:19.145Z,63.77
2019-01-26T18:54:49.568Z,68.97
2019-01-26T18:57:39.248Z,70.87
2019-01-26T19:00:19.398Z,69.93
2019-01-26T19:02:53.528Z,67.60
2019-01-26T19:05:28.652Z,67.00
2019-01-26T19:07:59.882Z,74.43
2019-01-26T19:10:31.018Z,82.97
2019-01-26T19:16:04.664Z,76.00
2019-01-26T19:18:55.595Z,78.63
2019-01-26T19:21:25.688Z,71.57
2019-01-26T19:23:55.807Z,75.20
2019-01-26T19:26:26.028Z,118.77
2019-01-26T19:28:56.354Z,74.53
2019-01-26T19:31:26.701Z,75.13
2019-01-26T19:36:48.639Z,250.90
2019-01-26T19:39:19.466Z,206.87
2019-01-26T19:41:50.204Z,101.53
2019-01-26T19:44:20.739Z,105.83
2019-01-26T19:46:57.619Z,96.97
2019-01-26T19:49:28.211Z,90.37
2019-01-26T19:51:58.883Z,96.37
2019-01-26T19:54:29.512Z,95.60
2019-01-26T19:57:07.302Z,90.37
2019-01-26T19:59:38.162Z,95.83
2019-01-26T20:02:08.967Z,97.20
2019-01-26T20:04:39.625Z,94.17
2019-01-26T20:07:10.347Z,98.33
2019-01-26T20:09:40.974Z,104.97
2019-01-26T20:12:11.805Z,98.77
2019-01-26T20:17:44.354Z,107.03
2019-01-26T20:20:31.022Z,94.57
2019-01-26T20:25:58.481Z,91.77
2019-01-26T20:28:29.339Z,90.40
2019-01-26T20:31:00.576Z,95.60
2019-01-26T20:33:31.506Z,97.47
2019-01-26T20:36:03.225Z,102.00
2019-01-26T20:38:34.258Z,106.80
2019-01-26T20:41:05.193Z,105.37
2019-01-26T20:43:36.232Z,110.87
2019-01-26T20:46:08.096Z,99.87
2019-01-26T20:48:39.015Z,112.93
2019-01-26T20:51:09.538Z,103.13
2019-01-26T20:54:01.067Z,111.30
2019-01-26T20:56:43.900Z,112.10
2019-01-26T20:59:14.770Z,112.60
2019-01-26T21:01:45.730Z,117.83
2019-01-26T21:04:16.424Z,115.43
2019-01-26T21:06:48.321Z,107.40
2019-01-26T21:09:30.210Z,170.67
2019-01-26T21:12:12.481Z,120.17
2019-01-26T21:14:43.528Z,155.20
2019-01-26T21:17:34.976Z,129.03
2019-01-26T21:20:08.832Z,111.33
2019-01-26T21:22:39.711Z,112.93
2019-01-26T21:25:32.479Z,121.27
2019-01-26T21:28:03.213Z,105.03
2019-01-26T21:30:34.551Z,118.73
2019-01-26T21:33:04.672Z,114.90
2019-01-26T21:35:36.350Z,113.57
2019-01-26T21:38:06.547Z,125.73
2019-01-26T21:40:36.872Z,118.40
2019-01-26T21:43:06.992Z,130.27
2019-01-26T21:45:38.678Z,113.23
2019-01-26T21:48:08.765Z,123.90
2019-01-26T21:50:38.930Z,121.83
2019-01-26T21:53:09.003Z,119.50
2019-01-26T21:55:40.250Z,133.50
2019-01-26T21:58:10.403Z,115.77
2019-01-26T22:00:41.411Z,117.60
2019-01-26T22:03:11.631Z,120.93
2019-01-26T22:05:42.877Z,114.37
2019-01-26T22:08:13.106Z,124.10
2019-01-26T22:10:43.115Z,120.73
2019-01-26T22:13:13.544Z,113.87
2019-01-26T22:15:44.686Z,119.43
2019-01-26T22:18:15.217Z,122.93
2019-01-26T22:20:45.336Z,124.17
2019-01-26T22:23:15.658Z,109.73
2019-01-26T22:25:46.835Z,124.57
2019-01-26T22:28:17.126Z,123.23
2019-01-26T22:30:47.452Z,122.50
2019-01-26T22:33:17.674Z,129.50
2019-01-26T22:35:49.020Z,122.23
2019-01-26T22:38:19.243Z,112.87
2019-01-26T22:40:49.258Z,124.03
2019-01-26T22:43:19.717Z,120.37
2019-01-26T22:45:50.832Z,114.03
2019-01-26T22:48:20.951Z,130.03
2019-01-26T22:50:51.069Z,233.77
2019-01-26T22:53:21.394Z,235.67
2019-01-26T22:55:52.536Z,187.13
2019-01-26T22:58:22.893Z,178.77
2019-01-26T23:01:02.707Z,135.40
2019-01-26T23:04:03.963Z,114.00
2019-01-26T23:06:56.091Z,120.60
2019-01-26T23:09:36.860Z,123.23
2019-01-26T23:12:13.020Z,99.17
2019-01-26T23:15:08.446Z,126.50
2019-01-26T23:17:41.355Z,98.73
2019-01-26T23:20:33.735Z,98.70
2019-01-26T23:23:18.617Z,110.80
2019-01-26T23:25:55.708Z,109.77
2019-01-26T23:31:16.779Z,205.10
2019-01-26T23:33:47.238Z,169.23
2019-01-26T23:36:18.512Z,109.90
2019-01-26T23:38:48.628Z,102.43
2019-01-26T23:41:18.953Z,108.63
2019-01-26T23:43:49.073Z,101.00
2019-01-26T23:46:20.625Z,93.50
2019-01-26T23:48:50.846Z,91.63
2019-01-26T23:51:21.170Z,98.03
2019-01-26T23:53:51.494Z,90.87
2019-01-26T23:56:22.946Z,79.80
2019-01-26T23:58:53.271Z,91.53
